createdAt,value
2022-11-29T00:09:27.444Z,97322.13
2022-11-29T00:19:29.240Z,97321.72
2022-11-29T00:29:30.909Z,97322.97
2022-11-29T00:39:32.345Z,97317.53
2022-11-29T00:49:33.979Z,97316.31
2022-11-29T00:59:35.408Z,97314.50
2022-11-29T01:09:36.848Z,97314.50
2022-11-29T01:19:38.886Z,97313.59
2022-11-29T01:29:40.431Z,97315.31
2022-11-29T01:39:42.681Z,97316.47
2022-11-29T01:49:46.759Z,97313.84
2022-11-29T01:59:52.234Z,97308.38
2022-11-29T02:09:53.717Z,97309.56
2022-11-29T02:20:17.506Z,97313.31
2022-11-29T02:30:57.585Z,97309.84
2022-11-29T02:41:04.877Z,97313.25
2022-11-29T02:51:09.336Z,97306.47
2022-11-29T03:01:18.344Z,97309.94
2022-11-29T03:11:31.989Z,97317.41
2022-11-29T03:22:16.164Z,97333.75
2022-11-29T03:32:33.977Z,97321.97
2022-11-29T03:42:45.372Z,97331.03
2022-11-29T03:52:53.918Z,97342.00
2022-11-29T04:03:17.145Z,97338.06
2022-11-29T04:13:30.868Z,97331.75
2022-11-29T04:24:08.883Z,97337.13
2022-11-29T04:34:28.661Z,97340.56
2022-11-29T04:44:36.223Z,97349.03
2022-11-29T04:54:49.911Z,97353.63
2022-11-29T05:05:11.571Z,97358.53
2022-11-29T05:15:59.674Z,97364.34
2022-11-29T05:26:09.317Z,97363.38
2022-11-29T05:36:43.339Z,97376.09
2022-11-29T05:46:56.869Z,97377.22
2022-11-29T05:57:26.872Z,97389.34
2022-11-29T06:08:01.124Z,97394.28
2022-11-29T06:18:44.783Z,97402.97
2022-11-29T06:29:25.379Z,97414.47
2022-11-29T06:39:27.165Z,97414.19
2022-11-29T06:49:54.093Z,97418.03
2022-11-29T07:00:11.631Z,97428.53
2022-11-29T07:10:18.181Z,97427.06
2022-11-29T07:20:44.574Z,97436.69
2022-11-29T07:30:57.434Z,97439.91
2022-11-29T07:41:20.477Z,97441.31
2022-11-29T07:51:22.092Z,97448.22
2022-11-29T08:01:23.676Z,97451.47
2022-11-29T08:11:26.540Z,97467.66
2022-11-29T08:21:28.176Z,97461.44
2022-11-29T08:31:29.660Z,97471.38
2022-11-29T08:41:31.168Z,97470.13
2022-11-29T08:51:32.618Z,97481.28
2022-11-29T09:01:34.286Z,97487.34
2022-11-29T09:11:36.953Z,97496.75
2022-11-29T09:21:38.409Z,97501.75
2022-11-29T09:31:40.133Z,97505.22
2022-11-29T09:41:50.414Z,97510.16
2022-11-29T09:52:19.585Z,97513.06
2022-11-29T10:02:42.127Z,97511.69
2022-11-29T10:12:52.395Z,97514.44
2022-11-29T10:23:03.052Z,97512.78
2022-11-29T10:33:25.400Z,97514.38
2022-11-29T10:43:26.941Z,97510.88
2022-11-29T10:53:35.989Z,97499.88
2022-11-29T11:03:41.272Z,97502.19
2022-11-29T11:13:42.824Z,97507.88
2022-11-29T11:24:01.791Z,97514.31
2022-11-29T11:34:36.598Z,97515.81
2022-11-29T11:44:49.336Z,97521.22
2022-11-29T11:54:57.107Z,97522.88
2022-11-29T12:05:02.725Z,97530.47
2022-11-29T12:15:16.208Z,97542.19
2022-11-29T12:25:23.315Z,97536.34
2022-11-29T12:35:46.251Z,97539.22
2022-11-29T12:46:12.822Z,97538.00
2022-11-29T12:56:36.160Z,97536.66
2022-11-29T13:07:02.515Z,97543.59
2022-11-29T13:17:12.206Z,97554.47
2022-11-29T13:27:19.385Z,97554.00
2022-11-29T13:37:30.673Z,97561.50
2022-11-29T13:47:32.187Z,97573.03
2022-11-29T13:58:15.403Z,97576.03
2022-11-29T14:08:54.500Z,97581.91
2022-11-29T14:19:31.631Z,97573.03
2022-11-29T14:30:24.587Z,97582.59
2022-11-29T14:40:33.471Z,97593.53
2022-11-29T14:50:37.967Z,97595.44
2022-11-29T15:01:01.779Z,97600.75
2022-11-29T15:11:51.153Z,97607.06
2022-11-29T15:22:16.723Z,97615.34
2022-11-29T15:32:25.854Z,97615.47
2022-11-29T15:42:32.456Z,97631.13
2022-11-29T15:52:38.318Z,97641.78
2022-11-29T16:02:47.761Z,97644.34
2022-11-29T16:12:54.909Z,97639.59
2022-11-29T16:23:13.472Z,97656.25
2022-11-29T16:33:21.279Z,97655.56
2022-11-29T16:43:48.304Z,97671.25
2022-11-29T16:53:54.098Z,97669.50
2022-11-29T17:03:59.978Z,97684.03
2022-11-29T17:14:01.460Z,97685.28
2022-11-29T17:24:02.994Z,97685.97
2022-11-29T17:34:05.069Z,97688.94
2022-11-29T17:44:06.492Z,97699.50
2022-11-29T17:54:08.336Z,97710.25
2022-11-29T18:04:09.799Z,97726.13
2022-11-29T18:14:12.787Z,97720.09
2022-11-29T18:24:14.315Z,97730.22
2022-11-29T18:34:15.911Z,97719.28
2022-11-29T18:44:20.165Z,97724.94
2022-11-29T18:54:21.756Z,97736.03
2022-11-29T19:04:23.250Z,97734.56
2022-11-29T19:14:24.759Z,97740.50
2022-11-29T19:24:26.175Z,97749.66
2022-11-29T19:34:27.592Z,97755.25
2022-11-29T19:44:30.211Z,97764.13
2022-11-29T19:54:32.901Z,97766.22
2022-11-29T20:04:34.440Z,97782.06
2022-11-29T20:14:35.993Z,97777.16
2022-11-29T20:24:42.612Z,97790.28
2022-11-29T20:34:47.086Z,97791.78
2022-11-29T20:44:58.674Z,97796.22
2022-11-29T20:55:00.179Z,97811.75
2022-11-29T21:05:01.654Z,97810.47
2022-11-29T21:15:04.440Z,97820.78
2022-11-29T21:25:25.416Z,97812.78
2022-11-29T21:35:26.864Z,97815.03
2022-11-29T21:45:28.595Z,97823.59
2022-11-29T21:55:32.013Z,97814.31
2022-11-29T22:05:34.005Z,97824.63
2022-11-29T22:15:35.456Z,97817.44
2022-11-29T22:25:36.904Z,97809.25
2022-11-29T22:35:44.599Z,97820.75
2022-11-29T22:45:46.044Z,97812.13
2022-11-29T22:55:47.477Z,97797.72
2022-11-29T23:05:48.906Z,97803.88
2022-11-29T23:15:51.971Z,97798.63
2022-11-29T23:25:53.416Z,97805.22
2022-11-29T23:36:06.729Z,97801.03
2022-11-29T23:46:14.823Z,97794.06
2022-11-29T23:56:17.978Z,97791.56
